createdAt,value
2019-03-13T00:01:52.447Z,93.44
2019-03-13T00:04:21.376Z,95.02
2019-03-13T00:06:50.710Z,93.08
2019-03-13T00:09:20.040Z,93.84
2019-03-13T00:11:49.387Z,92.41
2019-03-13T00:14:18.723Z,95.75
2019-03-13T00:16:48.046Z,92.74
2019-03-13T00:19:17.350Z,90.91
2019-03-13T00:21:46.680Z,92.30
2019-03-13T00:24:16.008Z,91.54
2019-03-13T00:26:45.333Z,90.35
2019-03-13T00:29:14.648Z,92.46
2019-03-13T00:31:43.973Z,90.50
2019-03-13T00:34:13.308Z,91.42
2019-03-13T00:36:42.660Z,91.16
2019-03-13T00:39:11.977Z,92.03
2019-03-13T00:44:44.226Z,93.33
2019-03-13T00:47:13.556Z,93.13
2019-03-13T00:49:42.863Z,93.25
2019-03-13T00:52:12.202Z,93.67
2019-03-13T00:54:41.543Z,93.74
2019-03-13T00:57:10.871Z,92.31
2019-03-13T00:59:40.194Z,93.61
2019-03-13T01:05:04.314Z,91.85
2019-03-13T01:07:33.633Z,91.81
2019-03-13T01:13:04.758Z,90.08
2019-03-13T01:15:33.281Z,91.12
2019-03-13T01:21:04.857Z,90.08
2019-03-13T01:23:34.165Z,89.83
2019-03-13T01:26:03.606Z,89.11
2019-03-13T01:28:32.920Z,91.05
2019-03-13T01:34:26.882Z,90.67
2019-03-13T01:36:56.213Z,90.53
2019-03-13T01:39:25.526Z,89.67
2019-03-13T01:41:54.855Z,90.10
2019-03-13T01:44:24.175Z,91.88
2019-03-13T01:46:53.495Z,91.96
2019-03-13T01:49:22.822Z,90.06
2019-03-13T01:54:34.939Z,89.16
2019-03-13T01:57:04.269Z,89.64
2019-03-13T01:59:33.612Z,89.50
2019-03-13T02:02:02.946Z,88.86
2019-03-13T02:04:32.373Z,89.18
2019-03-13T02:07:01.714Z,88.89
2019-03-13T02:12:33.468Z,88.58
2019-03-13T02:15:15.428Z,88.72
2019-03-13T02:20:46.853Z,87.65
2019-03-13T02:23:16.203Z,86.20
2019-03-13T02:25:45.517Z,86.79
2019-03-13T02:28:14.843Z,88.45
2019-03-13T02:30:44.175Z,87.73
2019-03-13T02:33:13.522Z,86.10
2019-03-13T02:35:42.845Z,87.42
2019-03-13T02:38:12.178Z,86.22
2019-03-13T02:40:41.523Z,86.09
2019-03-13T02:43:10.821Z,84.94
2019-03-13T02:45:40.157Z,86.55
2019-03-13T02:48:09.494Z,84.76
2019-03-13T02:50:38.814Z,85.33
2019-03-13T02:53:08.152Z,89.19
2019-03-13T02:55:37.460Z,84.66
2019-03-13T02:58:06.781Z,84.69
2019-03-13T03:00:55.563Z,83.98
2019-03-13T03:03:43.557Z,84.34
2019-03-13T03:09:14.934Z,84.89
2019-03-13T03:11:44.252Z,84.74
2019-03-13T03:14:13.584Z,84.30
2019-03-13T03:16:42.920Z,85.18
2019-03-13T03:19:12.251Z,87.25
2019-03-13T03:21:41.575Z,86.71
2019-03-13T03:24:11.091Z,85.21
2019-03-13T03:26:40.503Z,84.66
2019-03-13T03:32:11.799Z,85.59
2019-03-13T03:34:40.342Z,85.87
2019-03-13T03:37:08.859Z,86.01
2019-03-13T03:42:39.880Z,88.47
2019-03-13T03:50:54.333Z,86.42
2019-03-13T03:53:23.665Z,86.46
2019-03-13T03:55:53.075Z,86.98
2019-03-13T03:58:22.424Z,86.62
2019-03-13T04:03:35.373Z,86.30
2019-03-13T04:06:04.890Z,85.64
2019-03-13T04:11:35.429Z,86.97
2019-03-13T04:17:06.505Z,85.71
2019-03-13T04:19:35.829Z,84.38
2019-03-13T04:22:05.173Z,84.93
2019-03-13T04:24:34.498Z,84.79
2019-03-13T04:27:03.942Z,84.37
2019-03-13T04:29:33.271Z,84.33
2019-03-13T04:32:02.622Z,84.78
2019-03-13T04:34:31.946Z,84.32
2019-03-13T04:37:01.284Z,84.59
2019-03-13T04:39:30.600Z,84.04
2019-03-13T04:41:59.958Z,83.81
2019-03-13T04:44:29.280Z,84.57
2019-03-13T04:50:00.687Z,85.57
2019-03-13T04:52:30.014Z,85.28
2019-03-13T04:54:59.347Z,85.09
2019-03-13T04:57:28.689Z,84.58
2019-03-13T04:59:58.019Z,85.02
2019-03-13T05:02:27.360Z,83.73
2019-03-13T05:04:56.668Z,83.53
2019-03-13T05:07:25.976Z,85.46
2019-03-13T05:09:55.296Z,83.28
2019-03-13T05:12:24.709Z,84.10
2019-03-13T05:14:54.032Z,82.82
2019-03-13T05:17:23.365Z,83.80
2019-03-13T05:19:52.697Z,83.36
2019-03-13T05:22:22.031Z,85.23
2019-03-13T05:24:51.365Z,84.34
2019-03-13T05:30:22.628Z,84.61
2019-03-13T05:32:51.965Z,85.09
2019-03-13T05:35:21.287Z,83.90
2019-03-13T05:37:50.659Z,83.34
2019-03-13T05:40:20.012Z,84.38
2019-03-13T05:42:48.628Z,84.49
2019-03-13T05:48:19.868Z,83.53
2019-03-13T05:50:49.194Z,83.10
2019-03-13T05:53:18.532Z,83.62
2019-03-13T05:55:47.856Z,83.46
2019-03-13T05:58:17.189Z,84.27
2019-03-13T06:00:46.541Z,83.87
2019-03-13T06:03:15.884Z,85.29
2019-03-13T06:05:45.424Z,83.58
2019-03-13T06:08:14.797Z,82.68
2019-03-13T06:10:44.111Z,83.12
2019-03-13T06:19:17.102Z,82.85
2019-03-13T06:24:30.103Z,80.38
2019-03-13T06:26:59.457Z,81.81
2019-03-13T06:32:17.104Z,80.21
2019-03-13T06:34:46.486Z,80.07
2019-03-13T06:37:15.886Z,80.79
2019-03-13T06:39:45.301Z,81.09
2019-03-13T06:42:14.744Z,80.15
2019-03-13T06:44:44.588Z,81.04
2019-03-13T06:47:14.383Z,80.05
2019-03-13T06:50:03.472Z,81.59
2019-03-13T06:52:33.044Z,82.93
2019-03-13T06:55:02.528Z,83.40
2019-03-13T06:57:31.998Z,85.12
2019-03-13T07:00:20.820Z,84.42
2019-03-13T07:03:08.920Z,83.77
2019-03-13T07:05:57.803Z,81.89
2019-03-13T07:08:46.645Z,81.25
2019-03-13T07:11:35.456Z,78.65
2019-03-13T07:14:23.508Z,78.19
2019-03-13T07:20:14.807Z,76.65
2019-03-13T07:23:03.601Z,77.75
2019-03-13T07:25:52.441Z,77.47
2019-03-13T07:28:36.783Z,79.95
2019-03-13T07:31:14.273Z,76.71
2019-03-13T07:37:05.118Z,77.84
2019-03-13T07:39:53.138Z,77.81
2019-03-13T07:42:41.227Z,75.94
2019-03-13T07:45:22.223Z,78.08
2019-03-13T07:48:11.026Z,75.88
2019-03-13T07:50:52.211Z,77.36
2019-03-13T07:53:40.236Z,76.64
2019-03-13T07:56:28.257Z,76.20
2019-03-13T07:59:16.314Z,76.07
2019-03-13T08:01:54.707Z,76.06
2019-03-13T08:07:45.661Z,75.58
2019-03-13T08:10:34.618Z,74.78
2019-03-13T08:18:41.421Z,74.40
2019-03-13T08:21:29.483Z,74.85
2019-03-13T08:24:17.515Z,73.27
2019-03-13T08:26:52.185Z,73.69
2019-03-13T08:32:42.416Z,72.67
2019-03-13T08:35:37.127Z,72.10
2019-03-13T08:38:25.333Z,72.89
2019-03-13T08:41:14.412Z,75.62
2019-03-13T08:46:52.820Z,71.25
2019-03-13T08:52:35.905Z,70.85
2019-03-13T08:55:24.361Z,72.64
2019-03-13T08:58:13.196Z,68.32
2019-03-13T09:04:04.154Z,72.02
2019-03-13T09:06:53.069Z,63.64
2019-03-13T09:09:41.395Z,63.17
2019-03-13T09:15:31.777Z,61.53
2019-03-13T09:21:22.000Z,63.02
2019-03-13T09:23:57.760Z,62.85
2019-03-13T09:29:40.421Z,58.88
2019-03-13T09:32:28.625Z,60.02
2019-03-13T09:38:19.462Z,60.05
2019-03-13T09:41:07.569Z,59.03
2019-03-13T09:43:55.610Z,56.80
2019-03-13T09:46:43.601Z,57.55
2019-03-13T09:49:31.678Z,56.97
2019-03-13T09:52:20.485Z,59.15
2019-03-13T09:55:08.538Z,55.51
2019-03-13T09:57:57.370Z,56.34
2019-03-13T10:00:45.557Z,56.75
2019-03-13T10:03:34.372Z,60.65
2019-03-13T10:06:22.643Z,55.49
2019-03-13T10:09:11.504Z,59.76
2019-03-13T10:11:59.608Z,57.96
2019-03-13T10:14:47.737Z,54.93
2019-03-13T10:17:35.725Z,61.16
2019-03-13T10:20:22.613Z,58.14
2019-03-13T10:23:11.409Z,57.39
2019-03-13T10:26:00.284Z,54.71
2019-03-13T10:28:49.136Z,54.81
2019-03-13T10:34:43.321Z,54.19
2019-03-13T10:40:34.445Z,59.04
2019-03-13T10:46:13.263Z,51.58
2019-03-13T10:52:03.783Z,55.62
2019-03-13T10:54:43.093Z,49.59
2019-03-13T10:57:31.978Z,50.62
2019-03-13T11:00:11.933Z,51.38
2019-03-13T11:06:02.748Z,51.25
2019-03-13T11:08:51.102Z,58.15
2019-03-13T11:11:39.900Z,54.02
2019-03-13T11:14:28.769Z,57.13
2019-03-13T11:17:16.766Z,51.06
2019-03-13T11:20:08.084Z,51.81
2019-03-13T11:22:56.949Z,56.80
2019-03-13T11:25:45.077Z,56.96
2019-03-13T11:28:33.531Z,50.94
2019-03-13T11:31:22.313Z,48.86
2019-03-13T11:34:11.125Z,49.90
2019-03-13T11:36:59.935Z,49.43
2019-03-13T11:39:48.216Z,50.17
2019-03-13T11:42:55.876Z,50.84
2019-03-13T11:45:44.935Z,52.09
2019-03-13T11:48:23.248Z,56.72
2019-03-13T11:51:12.338Z,48.60
2019-03-13T11:57:03.908Z,50.09
2019-03-13T11:59:47.709Z,50.76
2019-03-13T12:02:36.240Z,50.90
2019-03-13T12:05:23.885Z,51.52
2019-03-13T12:08:12.684Z,50.91
2019-03-13T12:10:48.299Z,50.29
2019-03-13T12:16:38.791Z,49.88
2019-03-13T12:19:27.600Z,48.42
2019-03-13T12:22:08.004Z,48.69
2019-03-13T12:27:59.069Z,48.46
2019-03-13T12:33:50.437Z,48.63
2019-03-13T12:39:45.469Z,49.30
2019-03-13T12:42:34.271Z,52.61
2019-03-13T12:48:17.001Z,53.67
2019-03-13T12:51:24.134Z,50.53
2019-03-13T12:54:00.136Z,49.92
2019-03-13T12:56:38.965Z,51.00
2019-03-13T12:59:27.765Z,48.41
2019-03-13T13:02:16.567Z,49.50
2019-03-13T13:05:05.376Z,54.32
2019-03-13T13:07:54.168Z,54.64
2019-03-13T13:10:43.014Z,49.12
2019-03-13T13:18:58.842Z,48.42
2019-03-13T13:21:28.182Z,46.96
2019-03-13T13:23:57.508Z,47.75
2019-03-13T13:26:26.832Z,48.09
2019-03-13T13:34:41.289Z,49.48
2019-03-13T13:37:10.762Z,52.60
2019-03-13T13:39:40.098Z,50.87
2019-03-13T13:42:09.445Z,51.19
2019-03-13T13:44:38.796Z,50.02
2019-03-13T13:47:08.128Z,50.04
2019-03-13T13:52:40.672Z,50.38
2019-03-13T13:58:04.549Z,53.72
2019-03-13T14:00:33.299Z,54.02
2019-03-13T14:03:02.745Z,55.97
2019-03-13T14:05:32.069Z,51.11
2019-03-13T14:08:01.454Z,50.91
2019-03-13T14:10:30.794Z,51.43
2019-03-13T14:13:00.151Z,52.01
2019-03-13T14:15:29.488Z,51.49
2019-03-13T14:18:00.156Z,50.32
2019-03-13T14:20:48.142Z,54.14
2019-03-13T14:23:17.531Z,49.44
2019-03-13T14:25:46.893Z,56.24
2019-03-13T14:28:16.299Z,50.97
2019-03-13T14:30:45.639Z,50.29
2019-03-13T14:33:14.985Z,49.20
2019-03-13T14:35:46.363Z,48.79
2019-03-13T14:38:33.744Z,49.76
2019-03-13T14:41:03.222Z,47.85
2019-03-13T14:46:35.373Z,47.11
2019-03-13T14:49:04.721Z,50.61
2019-03-13T14:51:34.059Z,48.41
2019-03-13T14:54:03.555Z,50.38
2019-03-13T14:56:32.878Z,51.72
2019-03-13T14:59:02.219Z,53.38
2019-03-13T15:01:31.641Z,55.54
2019-03-13T15:07:03.251Z,51.05
2019-03-13T15:09:32.598Z,53.03
2019-03-13T15:12:01.957Z,50.97
2019-03-13T15:14:31.322Z,50.95
2019-03-13T15:17:00.668Z,58.96
2019-03-13T15:19:30.032Z,51.14
2019-03-13T15:21:59.364Z,53.66
2019-03-13T15:27:31.879Z,53.16
2019-03-13T15:30:01.226Z,50.49
2019-03-13T15:32:49.931Z,51.48
2019-03-13T15:35:19.289Z,53.49
2019-03-13T15:40:51.058Z,50.43
2019-03-13T15:43:33.154Z,51.71
2019-03-13T15:49:04.214Z,50.47
2019-03-13T15:51:33.575Z,51.31
2019-03-13T15:54:02.939Z,53.31
2019-03-13T15:56:32.283Z,50.16
2019-03-13T15:59:01.024Z,53.07
2019-03-13T16:04:33.667Z,49.49
2019-03-13T16:07:03.520Z,49.64
2019-03-13T16:12:16.526Z,51.62
2019-03-13T16:14:45.961Z,51.39
2019-03-13T16:17:15.420Z,51.75
2019-03-13T16:19:44.791Z,54.22
2019-03-13T16:22:26.062Z,53.44
2019-03-13T16:24:54.947Z,52.33
2019-03-13T16:33:29.069Z,56.50
2019-03-13T16:35:58.448Z,54.75
2019-03-13T16:38:27.828Z,57.04
2019-03-13T16:40:57.208Z,54.83
2019-03-13T16:43:26.547Z,53.68
2019-03-13T16:45:55.924Z,55.20
2019-03-13T16:51:28.091Z,56.76
2019-03-13T16:53:57.526Z,56.89
2019-03-13T16:56:26.864Z,55.70
2019-03-13T16:58:56.206Z,57.47
2019-03-13T17:01:25.557Z,55.60
2019-03-13T17:03:54.890Z,56.09
2019-03-13T17:06:24.240Z,56.57
2019-03-13T17:08:53.585Z,56.14
2019-03-13T17:11:23.029Z,55.68
2019-03-13T17:13:52.380Z,55.73
2019-03-13T17:16:21.719Z,55.43
2019-03-13T17:18:51.057Z,55.08
2019-03-13T17:21:20.386Z,55.21
2019-03-13T17:23:49.852Z,54.90
2019-03-13T17:26:19.199Z,57.59
2019-03-13T17:28:50.297Z,55.06
2019-03-13T17:31:37.911Z,55.10
2019-03-13T17:34:07.318Z,55.50
2019-03-13T17:36:36.725Z,55.93
2019-03-13T17:39:06.890Z,54.87
2019-03-13T17:41:36.328Z,54.51
2019-03-13T17:44:05.703Z,54.67
2019-03-13T17:46:35.053Z,54.19
2019-03-13T17:49:04.419Z,53.58
2019-03-13T18:00:02.472Z,53.92
2019-03-13T18:02:31.818Z,54.33
2019-03-13T18:05:01.176Z,54.41
2019-03-13T18:10:33.192Z,56.08
2019-03-13T18:16:04.231Z,54.84
2019-03-13T18:21:36.070Z,58.44
2019-03-13T18:24:05.484Z,55.68
2019-03-13T18:29:38.363Z,55.86
2019-03-13T18:32:07.953Z,58.21
2019-03-13T18:34:37.289Z,57.67
2019-03-13T18:37:06.993Z,57.72
2019-03-13T18:42:39.177Z,60.07
2019-03-13T18:51:14.669Z,58.59
2019-03-13T18:53:44.481Z,57.99
2019-03-13T18:56:13.816Z,58.97
2019-03-13T18:58:43.155Z,58.80
2019-03-13T19:01:25.005Z,58.36
2019-03-13T19:03:53.779Z,57.67
2019-03-13T19:06:23.113Z,58.76
2019-03-13T19:08:52.517Z,60.82
2019-03-13T19:11:21.923Z,61.50
2019-03-13T19:13:51.264Z,58.88
2019-03-13T19:16:20.608Z,58.90
2019-03-13T19:18:49.936Z,58.62
2019-03-13T19:21:19.277Z,59.18
2019-03-13T19:23:48.645Z,59.77
2019-03-13T19:26:18.147Z,58.96
2019-03-13T19:28:47.481Z,61.52
2019-03-13T19:31:16.812Z,59.62
2019-03-13T19:33:46.138Z,60.54
2019-03-13T19:36:15.708Z,61.49
2019-03-13T19:38:45.051Z,60.15
2019-03-13T19:41:14.494Z,65.69
2019-03-13T19:43:43.850Z,62.61
2019-03-13T19:46:13.174Z,60.33
2019-03-13T19:48:42.515Z,60.71
2019-03-13T19:51:11.858Z,61.17
2019-03-13T19:53:41.986Z,61.63
2019-03-13T19:56:30.580Z,62.57
2019-03-13T19:59:00.143Z,63.23
2019-03-13T20:04:12.732Z,62.08
2019-03-13T20:06:42.672Z,64.41
2019-03-13T20:09:31.321Z,62.21
2019-03-13T20:12:01.015Z,62.68
2019-03-13T20:14:30.341Z,62.36
2019-03-13T20:16:59.668Z,62.32
2019-03-13T20:19:29.209Z,62.27
2019-03-13T20:25:00.401Z,62.46
2019-03-13T20:30:31.549Z,62.96
2019-03-13T20:33:00.872Z,66.52
2019-03-13T20:35:30.205Z,64.40
2019-03-13T20:37:59.551Z,64.18
2019-03-13T20:40:28.958Z,64.70
2019-03-13T20:42:58.416Z,64.20
2019-03-13T20:45:27.968Z,64.03
2019-03-13T20:47:57.320Z,66.03
2019-03-13T20:50:36.665Z,64.39
2019-03-13T20:53:15.870Z,64.80
2019-03-13T20:55:45.208Z,65.66
2019-03-13T20:58:14.624Z,65.34
2019-03-13T21:03:39.599Z,65.50
2019-03-13T21:06:08.920Z,66.56
2019-03-13T21:08:38.261Z,66.38
2019-03-13T21:11:07.707Z,66.20
2019-03-13T21:13:58.288Z,67.38
2019-03-13T21:16:27.604Z,66.77
2019-03-13T21:18:56.958Z,70.55
2019-03-13T21:21:26.269Z,67.34
2019-03-13T21:23:55.613Z,68.39
2019-03-13T21:26:24.989Z,67.58
2019-03-13T21:28:54.331Z,67.89
2019-03-13T21:34:28.351Z,67.64
2019-03-13T21:37:14.962Z,67.48
2019-03-13T21:42:46.456Z,68.52
2019-03-13T21:45:39.944Z,68.10
2019-03-13T21:51:11.645Z,68.09
2019-03-13T21:53:40.189Z,67.81
2019-03-13T21:56:09.624Z,66.89
2019-03-13T22:04:24.740Z,70.26
2019-03-13T22:07:13.335Z,67.77
2019-03-13T22:09:42.683Z,67.96
2019-03-13T22:12:12.016Z,68.49
2019-03-13T22:14:41.337Z,68.57
2019-03-13T22:17:10.670Z,68.37
2019-03-13T22:19:40.034Z,68.22
2019-03-13T22:22:09.386Z,69.24
2019-03-13T22:27:40.759Z,73.66
2019-03-13T22:30:13.479Z,72.23
2019-03-13T22:35:44.704Z,69.74
2019-03-13T22:41:15.468Z,70.13
2019-03-13T22:43:45.083Z,69.47
2019-03-13T22:46:34.032Z,70.45
2019-03-13T22:49:03.358Z,71.52
2019-03-13T22:51:35.680Z,70.25
2019-03-13T22:54:21.919Z,70.32
2019-03-13T22:56:51.254Z,72.22
2019-03-13T22:59:20.684Z,72.94
2019-03-13T23:01:50.107Z,70.04
2019-03-13T23:04:19.436Z,70.96
2019-03-13T23:06:48.771Z,70.49
2019-03-13T23:09:18.100Z,72.02
2019-03-13T23:11:47.446Z,71.76
2019-03-13T23:14:16.769Z,71.92
2019-03-13T23:16:46.103Z,74.39
2019-03-13T23:19:17.567Z,71.57
2019-03-13T23:22:04.658Z,72.43
2019-03-13T23:24:33.989Z,73.06
2019-03-13T23:27:03.298Z,75.05
2019-03-13T23:29:32.607Z,73.51
2019-03-13T23:32:01.934Z,71.64
2019-03-13T23:34:31.247Z,74.22
2019-03-13T23:40:03.195Z,72.41
2019-03-13T23:42:32.528Z,72.48
2019-03-13T23:45:01.855Z,72.42
2019-03-13T23:47:31.166Z,73.10
2019-03-13T23:50:00.499Z,73.54
2019-03-13T23:52:29.815Z,73.51
2019-03-13T23:54:59.127Z,73.78
2019-03-13T23:57:28.436Z,74.93
2019-03-13T23:59:57.755Z,74.69
